Time;durP1;ratioP1;P1;durP2;ratioP2;P2;SDS_P1;SDS_P2;PMS_P1;PMS_P2;Temp;Humidity;BMP_temperature;BMP_pressure;BME280_temperature;BME280_humidity;BME280_pressure;Samples;Min_cycle;Max_cycle;Signal;HPM_P1;HPM_P2
2023/11/01 00:02:10;;;;;;;1.02;0.60;;;;;;;;;;5112008;28;20423;-54
2023/11/01 00:04:37;;;;;;;1.67;0.65;;;;;;;;;;5102728;28;20119;-54
2023/11/01 00:07:03;;;;;;;3.50;1.00;;;;;;;;;;5109312;28;20039;-55
2023/11/01 00:09:30;;;;;;;1.63;0.85;;;;;;;;;;5110788;28;20122;-52
2023/11/01 00:11:57;;;;;;;3.30;1.10;;;;;;;;;;5113317;27;20047;-54
2023/11/01 00:14:25;;;;;;;3.15;1.00;;;;;;;;;;5111557;28;20560;-53
2023/11/01 00:16:52;;;;;;;2.75;1.15;;;;;;;;;;5103582;27;20036;-52
2023/11/01 00:19:19;;;;;;;1.95;0.75;;;;;;;;;;5109538;28;20432;-51
2023/11/01 00:21:45;;;;;;;1.92;0.88;;;;;;;;;;5108264;28;20587;-54
2023/11/01 00:24:12;;;;;;;2.08;0.80;;;;;;;;;;5113062;28;20083;-54
2023/11/01 00:26:39;;;;;;;2.42;0.65;;;;;;;;;;5107132;28;20051;-51
2023/11/01 00:29:05;;;;;;;2.13;0.80;;;;;;;;;;5104344;28;20094;-55
2023/11/01 00:31:33;;;;;;;1.15;0.70;;;;;;;;;;5101182;28;20109;-55
2023/11/01 00:34:00;;;;;;;3.40;0.90;;;;;;;;;;5093551;28;20047;-57
2023/11/01 00:36:27;;;;;;;2.17;0.85;;;;;;;;;;5111483;28;20043;-56
2023/11/01 00:38:53;;;;;;;2.60;0.80;;;;;;;;;;5106495;27;20120;-53
2023/11/01 00:41:20;;;;;;;2.70;0.80;;;;;;;;;;5104999;28;20388;-56
2023/11/01 00:43:47;;;;;;;2.00;0.75;;;;;;;;;;5106951;27;20139;-54
2023/11/01 00:46:13;;;;;;;1.13;0.60;;;;;;;;;;5102139;28;20075;-56
2023/11/01 00:48:41;;;;;;;1.13;0.70;;;;;;;;;;5103665;28;20097;-52
2023/11/01 00:51:08;;;;;;;1.52;0.60;;;;;;;;;;5107591;28;20079;-57
2023/11/01 00:53:35;;;;;;;1.65;0.70;;;;;;;;;;5096975;28;20680;-54
2023/11/01 00:56:01;;;;;;;0.90;0.60;;;;;;;;;;5105663;28;20123;-52
2023/11/01 00:58:28;;;;;;;2.72;1.20;;;;;;;;;;5113437;28;20079;-53
2023/11/01 01:00:55;;;;;;;1.95;0.70;;;;;;;;;;5103084;28;20082;-51
2023/11/01 01:03:21;;;;;;;1.25;0.70;;;;;;;;;;5108952;28;20044;-52
2023/11/01 01:05:49;;;;;;;1.40;0.57;;;;;;;;;;5108870;28;20395;-53
2023/11/01 01:08:16;;;;;;;3.08;0.60;;;;;;;;;;5099296;28;20452;-53
2023/11/01 01:10:43;;;;;;;2.38;0.90;;;;;;;;;;5101896;28;20094;-50
2023/11/01 01:13:09;;;;;;;2.75;0.85;;;;;;;;;;5111368;28;20046;-53
2023/11/01 01:15:36;;;;;;;7.13;1.00;;;;;;;;;;5099722;28;20111;-54
2023/11/01 01:18:03;;;;;;;1.67;0.80;;;;;;;;;;5110356;28;20053;-54
2023/11/01 01:20:29;;;;;;;3.72;0.60;;;;;;;;;;5104399;28;20491;-54
2023/11/01 01:22:57;;;;;;;2.10;0.68;;;;;;;;;;5112630;28;20050;-51
2023/11/01 01:25:24;;;;;;;1.77;0.73;;;;;;;;;;5103111;28;20127;-54
2023/11/01 01:27:51;;;;;;;1.17;0.60;;;;;;;;;;5111212;28;20075;-55
2023/11/01 01:30:17;;;;;;;1.55;0.50;;;;;;;;;;5111754;28;20062;-55
2023/11/01 01:32:44;;;;;;;1.20;0.70;;;;;;;;;;5100548;28;20523;-56
2023/11/01 01:35:12;;;;;;;2.05;0.68;;;;;;;;;;5107488;28;20050;-56
2023/11/01 01:37:40;;;;;;;2.30;0.60;;;;;;;;;;5101645;28;20146;-50
2023/11/01 01:40:09;;;;;;;2.53;0.73;;;;;;;;;;5096867;28;20040;-55
2023/11/01 01:42:36;;;;;;;2.70;0.82;;;;;;;;;;5103485;28;20067;-56
2023/11/01 01:45:03;;;;;;;0.82;0.50;;;;;;;;;;5105074;28;20048;-53
2023/11/01 01:47:32;;;;;;;1.52;0.55;;;;;;;;;;5106560;28;20139;-55
2023/11/01 01:49:58;;;;;;;2.03;0.80;;;;;;;;;;5097963;28;20131;-55
2023/11/01 01:52:25;;;;;;;2.53;0.70;;;;;;;;;;5110482;28;20134;-52
2023/11/01 01:54:53;;;;;;;1.60;0.63;;;;;;;;;;5104424;28;20039;-55
2023/11/01 01:57:24;;;;;;;1.05;0.50;;;;;;;;;;5101847;28;20082;-52
2023/11/01 01:59:50;;;;;;;1.15;0.52;;;;;;;;;;5100455;28;20047;-54
2023/11/01 02:02:20;;;;;;;2.03;0.80;;;;;;;;;;5091761;28;20048;-51
2023/11/01 02:04:48;;;;;;;2.95;0.60;;;;;;;;;;5110987;28;20093;-53
2023/11/01 02:07:14;;;;;;;2.17;0.70;;;;;;;;;;5107281;28;20040;-54
2023/11/01 02:09:42;;;;;;;2.05;0.70;;;;;;;;;;5103987;28;20537;-55
2023/11/01 02:12:09;;;;;;;0.88;0.50;;;;;;;;;;5112097;28;20425;-51
2023/11/01 02:14:37;;;;;;;2.42;0.52;;;;;;;;;;5091970;28;21497;-52
2023/11/01 02:17:06;;;;;;;1.45;0.60;;;;;;;;;;5093907;28;20513;-52
2023/11/01 02:19:33;;;;;;;2.67;0.90;;;;;;;;;;5115310;27;20055;-56
2023/11/01 02:21:59;;;;;;;0.93;0.57;;;;;;;;;;5100470;28;20484;-55
2023/11/01 02:24:28;;;;;;;0.85;0.52;;;;;;;;;;5106787;27;20521;-56
2023/11/01 02:26:55;;;;;;;1.50;0.60;;;;;;;;;;5110607;28;20036;-56
2023/11/01 02:29:22;;;;;;;2.58;0.60;;;;;;;;;;5102711;28;20135;-55
2023/11/01 02:31:50;;;;;;;1.63;0.60;;;;;;;;;;5103699;28;20067;-56
2023/11/01 02:34:17;;;;;;;1.13;0.55;;;;;;;;;;5106556;28;20530;-55
2023/11/01 02:36:44;;;;;;;1.50;0.80;;;;;;;;;;5111715;28;20052;-53
2023/11/01 02:39:10;;;;;;;2.75;0.88;;;;;;;;;;5095626;28;20428;-54
2023/11/01 02:41:39;;;;;;;2.25;0.65;;;;;;;;;;5110345;28;20515;-55
2023/11/01 02:44:07;;;;;;;2.97;1.00;;;;;;;;;;5111415;28;20382;-51
2023/11/01 02:46:33;;;;;;;1.65;0.70;;;;;;;;;;5103024;28;20051;-54
2023/11/01 02:49:03;;;;;;;2.00;1.05;;;;;;;;;;5103462;28;20043;-53
2023/11/01 02:51:30;;;;;;;2.97;1.00;;;;;;;;;;5108752;28;20048;-52
2023/11/01 02:53:57;;;;;;;1.67;0.85;;;;;;;;;;5099504;28;20540;-54
2023/11/01 02:56:24;;;;;;;0.82;0.70;;;;;;;;;;5103508;28;20055;-55
2023/11/01 02:58:52;;;;;;;2.08;1.10;;;;;;;;;;5103732;28;20126;-52
2023/11/01 03:01:21;;;;;;;1.92;0.80;;;;;;;;;;5104869;28;20078;-52
2023/11/01 03:03:48;;;;;;;1.42;0.70;;;;;;;;;;5104782;28;20131;-54
2023/11/01 03:06:15;;;;;;;2.83;0.80;;;;;;;;;;5111221;28;20044;-51
2023/11/01 03:08:41;;;;;;;0.95;0.63;;;;;;;;;;5103282;28;20135;-55
2023/11/01 03:11:08;;;;;;;2.42;1.00;;;;;;;;;;5102708;28;20079;-53
2023/11/01 03:13:35;;;;;;;1.55;0.70;;;;;;;;;;5091828;28;20127;-54
2023/11/01 03:16:03;;;;;;;1.65;0.68;;;;;;;;;;5091243;28;20510;-56
2023/11/01 03:18:30;;;;;;;1.90;0.75;;;;;;;;;;5101628;28;20649;-56
2023/11/01 03:20:56;;;;;;;2.65;0.90;;;;;;;;;;5112709;28;20099;-57
2023/11/01 03:23:23;;;;;;;2.58;0.98;;;;;;;;;;5112268;28;20395;-56
2023/11/01 03:25:50;;;;;;;4.22;1.25;;;;;;;;;;5099856;28;20048;-52
2023/11/01 03:28:17;;;;;;;2.05;0.95;;;;;;;;;;5106887;28;20078;-53
2023/11/01 03:30:43;;;;;;;1.67;0.82;;;;;;;;;;5112361;28;20040;-52
2023/11/01 03:33:11;;;;;;;2.35;1.20;;;;;;;;;;5100345;28;20050;-52
2023/11/01 03:35:38;;;;;;;1.60;0.85;;;;;;;;;;5111177;28;20480;-52
2023/11/01 03:38:05;;;;;;;2.40;0.90;;;;;;;;;;5109884;28;20126;-57
2023/11/01 03:40:31;;;;;;;2.75;0.88;;;;;;;;;;5107179;28;20053;-55
2023/11/01 03:42:58;;;;;;;2.78;1.02;;;;;;;;;;5110296;28;20047;-54
2023/11/01 03:45:24;;;;;;;3.08;1.00;;;;;;;;;;5098546;28;20048;-56
2023/11/01 03:47:52;;;;;;;1.98;0.90;;;;;;;;;;5114643;28;20130;-51
2023/11/01 03:50:20;;;;;;;1.63;0.80;;;;;;;;;;5113493;28;20139;-53
2023/11/01 03:52:47;;;;;;;2.83;1.10;;;;;;;;;;5098677;28;20400;-56
2023/11/01 03:55:14;;;;;;;2.17;1.00;;;;;;;;;;5098851;28;20075;-54
2023/11/01 03:57:40;;;;;;;1.25;0.75;;;;;;;;;;5102737;28;20127;-55
2023/11/01 04:00:08;;;;;;;3.13;1.00;;;;;;;;;;5110086;28;20083;-53
2023/11/01 04:02:35;;;;;;;3.08;1.00;;;;;;;;;;5104842;28;20079;-51
2023/11/01 04:05:02;;;;;;;3.13;1.00;;;;;;;;;;5107933;28;20522;-51
2023/11/01 04:07:30;;;;;;;1.75;0.80;;;;;;;;;;5109463;27;20036;-54
2023/11/01 04:09:57;;;;;;;1.58;0.70;;;;;;;;;;5114208;28;20075;-55
2023/11/01 04:12:23;;;;;;;2.42;0.95;;;;;;;;;;5101083;28;20460;-56
2023/11/01 04:14:51;;;;;;;2.10;0.95;;;;;;;;;;5109951;28;20110;-55
2023/11/01 04:17:18;;;;;;;1.42;0.70;;;;;;;;;;5107362;28;20134;-52
2023/11/01 04:19:45;;;;;;;2.47;0.93;;;;;;;;;;5106060;28;20040;-56
2023/11/01 04:22:12;;;;;;;1.40;0.73;;;;;;;;;;5106387;28;20071;-52
2023/11/01 04:24:40;;;;;;;1.75;0.57;;;;;;;;;;5105080;28;20456;-56
2023/11/01 04:27:07;;;;;;;2.00;0.90;;;;;;;;;;5114078;28;20442;-54
2023/11/01 04:29:33;;;;;;;3.03;0.90;;;;;;;;;;5097361;28;20044;-53
2023/11/01 04:32:00;;;;;;;1.58;0.68;;;;;;;;;;5114196;27;20087;-51
2023/11/01 04:34:26;;;;;;;2.38;0.70;;;;;;;;;;5109731;28;20049;-54
2023/11/01 04:36:53;;;;;;;1.98;0.82;;;;;;;;;;5107031;28;20491;-54
2023/11/01 04:39:20;;;;;;;0.90;0.55;;;;;;;;;;5113399;28;20131;-54
2023/11/01 04:41:48;;;;;;;1.85;0.68;;;;;;;;;;5113923;28;20123;-55
2023/11/01 04:44:15;;;;;;;2.10;0.82;;;;;;;;;;5111859;28;20118;-56
2023/11/01 04:46:41;;;;;;;2.40;0.80;;;;;;;;;;5105317;28;20047;-52
2023/11/01 04:49:09;;;;;;;1.55;0.88;;;;;;;;;;5112990;28;20127;-53
2023/11/01 04:51:35;;;;;;;2.25;0.90;;;;;;;;;;5110475;28;20091;-52
2023/11/01 04:54:06;;;;;;;1.30;0.70;;;;;;;;;;5094972;28;20040;-56
2023/11/01 04:56:33;;;;;;;1.33;0.77;;;;;;;;;;5112279;28;20048;-57
2023/11/01 04:59:00;;;;;;;1.25;0.85;;;;;;;;;;5098799;28;20048;-55
2023/11/01 05:01:30;;;;;;;6.47;0.90;;;;;;;;;;5111079;28;20043;-54
2023/11/01 05:03:57;;;;;;;2.70;0.70;;;;;;;;;;5107433;28;20055;-54
2023/11/01 05:06:26;;;;;;;1.85;0.75;;;;;;;;;;5103627;28;20127;-55
2023/11/01 05:08:53;;;;;;;2.80;0.75;;;;;;;;;;5093063;28;20483;-54
2023/11/01 05:11:22;;;;;;;2.33;0.55;;;;;;;;;;5110393;28;20047;-53
2023/11/01 05:13:49;;;;;;;1.25;0.57;;;;;;;;;;5107841;28;20044;-53
2023/11/01 05:16:17;;;;;;;1.65;0.75;;;;;;;;;;5106397;28;20134;-54
2023/11/01 05:18:43;;;;;;;3.00;0.90;;;;;;;;;;5112957;28;20157;-53
2023/11/01 05:21:10;;;;;;;1.65;0.77;;;;;;;;;;5099995;28;20090;-56
2023/11/01 05:23:43;;;;;;;1.15;0.63;;;;;;;;;;5111170;28;20054;-52
2023/11/01 05:26:14;;;;;;;1.15;0.55;;;;;;;;;;5101365;28;20517;-52
2023/11/01 05:28:42;;;;;;;0.77;0.43;;;;;;;;;;5113038;28;20054;-52
2023/11/01 05:31:08;;;;;;;1.92;0.63;;;;;;;;;;5105235;28;20273;-55
2023/11/01 05:33:36;;;;;;;1.00;0.60;;;;;;;;;;5111093;28;20118;-55
2023/11/01 05:36:06;;;;;;;1.75;0.60;;;;;;;;;;5103246;28;20417;-56
2023/11/01 05:38:33;;;;;;;1.40;0.60;;;;;;;;;;5110212;28;20052;-54
2023/11/01 05:40:59;;;;;;;2.20;0.90;;;;;;;;;;5106455;28;20162;-55
2023/11/01 05:43:26;;;;;;;2.58;0.68;;;;;;;;;;5095160;28;20376;-55
2023/11/01 05:45:53;;;;;;;2.13;0.70;;;;;;;;;;5110314;28;20116;-55
2023/11/01 05:48:19;;;;;;;1.35;0.60;;;;;;;;;;5103720;28;20467;-53
2023/11/01 05:50:47;;;;;;;2.72;0.90;;;;;;;;;;5104686;28;20482;-52
2023/11/01 05:53:14;;;;;;;1.88;0.88;;;;;;;;;;5112425;28;20402;-53
2023/11/01 05:55:41;;;;;;;2.03;0.60;;;;;;;;;;5099553;28;20059;-57
2023/11/01 05:58:08;;;;;;;2.88;0.98;;;;;;;;;;5100401;28;20096;-57
2023/11/01 06:00:35;;;;;;;1.88;0.80;;;;;;;;;;5102818;28;20487;-53
2023/11/01 06:03:01;;;;;;;2.58;0.77;;;;;;;;;;5112216;28;20510;-55
2023/11/01 06:05:28;;;;;;;1.55;0.77;;;;;;;;;;5112337;28;20078;-52
2023/11/01 06:07:56;;;;;;;3.33;1.00;;;;;;;;;;5109287;28;20111;-56
2023/11/01 06:10:23;;;;;;;2.13;1.00;;;;;;;;;;5108521;28;20141;-51
2023/11/01 06:12:50;;;;;;;1.95;0.60;;;;;;;;;;5104270;28;20044;-52
2023/11/01 06:15:16;;;;;;;2.67;0.90;;;;;;;;;;5108326;28;20090;-55
2023/11/01 06:17:43;;;;;;;3.50;1.02;;;;;;;;;;5103387;28;20100;-53
2023/11/01 06:20:10;;;;;;;1.10;0.60;;;;;;;;;;5112040;28;20075;-52
2023/11/01 06:22:37;;;;;;;1.73;0.70;;;;;;;;;;5111823;28;20563;-55
2023/11/01 06:25:08;;;;;;;2.03;0.68;;;;;;;;;;5105424;28;20097;-54
2023/11/01 06:27:35;;;;;;;1.58;0.70;;;;;;;;;;5108898;28;20043;-55
2023/11/01 06:30:04;;;;;;;1.52;0.52;;;;;;;;;;5106564;28;20131;-56
2023/11/01 06:32:31;;;;;;;1.73;0.70;;;;;;;;;;5110726;28;20051;-52
2023/11/01 06:34:58;;;;;;;1.67;0.70;;;;;;;;;;5103348;28;20093;-54
2023/11/01 06:37:24;;;;;;;1.33;0.70;;;;;;;;;;5099189;28;20050;-54
2023/11/01 06:39:51;;;;;;;2.30;0.80;;;;;;;;;;5108399;28;20122;-52
2023/11/01 06:42:19;;;;;;;3.00;1.00;;;;;;;;;;5103573;28;20503;-56
2023/11/01 06:44:46;;;;;;;2.25;0.93;;;;;;;;;;5107994;28;20052;-54
2023/11/01 06:47:12;;;;;;;2.63;0.95;;;;;;;;;;5106310;28;20471;-56
2023/11/01 06:49:39;;;;;;;2.17;0.80;;;;;;;;;;5108306;28;20130;-52
2023/11/01 06:52:06;;;;;;;1.85;0.70;;;;;;;;;;5106988;28;20430;-57
2023/11/01 06:54:34;;;;;;;2.13;0.80;;;;;;;;;;5097414;28;20075;-56
2023/11/01 06:57:00;;;;;;;1.58;0.80;;;;;;;;;;5108323;28;20048;-55
2023/11/01 06:59:28;;;;;;;1.60;0.88;;;;;;;;;;5113184;28;20071;-55
2023/11/01 07:01:55;;;;;;;2.83;0.90;;;;;;;;;;5116254;28;20131;-52
2023/11/01 07:04:22;;;;;;;1.30;0.75;;;;;;;;;;5115401;28;20134;-54
2023/11/01 07:06:48;;;;;;;2.78;0.82;;;;;;;;;;5103540;28;20047;-53
2023/11/01 07:09:15;;;;;;;2.42;1.08;;;;;;;;;;5112254;28;20122;-55
2023/11/01 07:11:42;;;;;;;1.55;0.73;;;;;;;;;;5115911;28;20505;-52
2023/11/01 07:14:09;;;;;;;1.95;0.95;;;;;;;;;;5114620;28;20050;-55
2023/11/01 07:16:39;;;;;;;1.92;0.82;;;;;;;;;;5111649;28;20172;-55
2023/11/01 07:19:06;;;;;;;2.30;0.80;;;;;;;;;;5107150;28;20043;-51
2023/11/01 07:21:33;;;;;;;2.20;1.00;;;;;;;;;;5112601;28;20340;-54
2023/11/01 07:24:00;;;;;;;4.00;1.13;;;;;;;;;;5109507;28;20147;-55
2023/11/01 07:26:26;;;;;;;1.58;1.00;;;;;;;;;;5106429;28;20131;-55
2023/11/01 07:28:53;;;;;;;1.95;0.95;;;;;;;;;;5106963;28;20460;-54
2023/11/01 07:31:20;;;;;;;3.50;1.10;;;;;;;;;;5109123;27;20123;-56
2023/11/01 07:33:48;;;;;;;1.73;0.98;;;;;;;;;;5108492;28;20058;-52
2023/11/01 07:36:14;;;;;;;1.48;0.88;;;;;;;;;;5109805;28;20036;-55
2023/11/01 07:38:41;;;;;;;1.80;0.73;;;;;;;;;;5114727;28;20076;-55
2023/11/01 07:41:08;;;;;;;3.28;1.33;;;;;;;;;;5112897;28;20042;-51
2023/11/01 07:43:35;;;;;;;2.35;0.90;;;;;;;;;;5114708;28;20051;-52
2023/11/01 07:46:02;;;;;;;1.83;0.80;;;;;;;;;;5113989;28;20051;-55
2023/11/01 07:48:28;;;;;;;2.63;0.95;;;;;;;;;;5115092;28;20476;-56
2023/11/01 07:50:57;;;;;;;1.50;0.80;;;;;;;;;;5101150;28;20051;-55
2023/11/01 07:53:23;;;;;;;2.72;1.00;;;;;;;;;;5103737;28;20055;-51
2023/11/01 07:55:51;;;;;;;1.23;0.70;;;;;;;;;;5110124;28;20123;-53
2023/11/01 07:58:18;;;;;;;3.05;1.20;;;;;;;;;;5104877;28;20298;-54
2023/11/01 08:00:44;;;;;;;2.33;0.90;;;;;;;;;;5103967;28;20576;-55
2023/11/01 08:03:11;;;;;;;1.85;0.70;;;;;;;;;;5110236;28;20097;-55
2023/11/01 08:05:38;;;;;;;2.38;1.10;;;;;;;;;;5104977;27;20562;-55
2023/11/01 08:08:07;;;;;;;1.73;0.98;;;;;;;;;;5108012;28;20043;-51
2023/11/01 08:10:33;;;;;;;3.03;0.90;;;;;;;;;;5100835;27;20082;-53
2023/11/01 08:13:00;;;;;;;2.38;0.90;;;;;;;;;;5103951;27;20097;-51
2023/11/01 08:15:27;;;;;;;2.80;0.80;;;;;;;;;;5113740;28;20431;-51
2023/11/01 08:17:53;;;;;;;4.13;1.00;;;;;;;;;;5110929;28;20044;-53
2023/11/01 08:20:23;;;;;;;1.23;0.70;;;;;;;;;;5105131;28;20081;-54
2023/11/01 08:22:50;;;;;;;2.13;0.88;;;;;;;;;;5108803;28;20047;-56
2023/11/01 08:25:20;;;;;;;3.42;1.08;;;;;;;;;;5105684;28;20530;-51
2023/11/01 08:27:47;;;;;;;1.88;0.80;;;;;;;;;;5102285;28;20058;-55
2023/11/01 08:30:14;;;;;;;2.80;0.93;;;;;;;;;;5109499;28;20134;-55
2023/11/01 08:32:41;;;;;;;3.17;1.02;;;;;;;;;;5112305;28;20130;-52
2023/11/01 08:35:09;;;;;;;2.22;1.10;;;;;;;;;;5111083;28;20059;-52
2023/11/01 08:37:35;;;;;;;3.20;1.20;;;;;;;;;;5106272;28;20043;-54
2023/11/01 08:40:02;;;;;;;3.20;1.25;;;;;;;;;;5109762;28;20391;-54
2023/11/01 08:42:30;;;;;;;1.90;0.80;;;;;;;;;;5103322;28;20078;-55
2023/11/01 08:44:57;;;;;;;3.28;0.80;;;;;;;;;;5108498;28;20044;-51
2023/11/01 08:47:34;;;;;;;1.83;0.82;;;;;;;;;;5112696;28;20048;-52
2023/11/01 08:50:00;;;;;;;1.45;0.75;;;;;;;;;;5097342;28;20482;-51
2023/11/01 08:52:28;;;;;;;2.63;0.90;;;;;;;;;;5106281;28;20048;-54
2023/11/01 08:54:56;;;;;;;2.85;0.80;;;;;;;;;;5105994;28;20055;-53
2023/11/01 08:57:23;;;;;;;2.22;0.93;;;;;;;;;;5112724;28;20556;-53
2023/11/01 08:59:52;;;;;;;1.70;0.77;;;;;;;;;;5096058;28;20419;-55
2023/11/01 09:02:19;;;;;;;2.28;0.95;;;;;;;;;;5108047;28;20411;-52
2023/11/01 09:04:46;;;;;;;2.80;0.90;;;;;;;;;;5108496;28;20138;-56
2023/11/01 09:07:13;;;;;;;1.92;0.82;;;;;;;;;;5101753;28;20046;-56
2023/11/01 09:09:40;;;;;;;16.40;11.82;;;;;;;;;;5106502;28;20499;-54
2023/11/01 09:12:07;;;;;;;31.98;24.83;;;;;;;;;;5111114;28;20106;-52
2023/11/01 09:14:34;;;;;;;43.95;36.00;;;;;;;;;;5106611;28;20517;-51
2023/11/01 09:17:02;;;;;;;12.07;8.45;;;;;;;;;;5106916;28;20122;-51
2023/11/01 09:19:28;;;;;;;2.15;0.70;;;;;;;;;;5112979;28;20083;-56
2023/11/01 09:21:55;;;;;;;4.35;1.33;;;;;;;;;;5105136;28;20048;-63
2023/11/01 09:24:22;;;;;;;1.55;0.80;;;;;;;;;;5107881;28;20451;-57
2023/11/01 09:26:49;;;;;;;2.03;0.80;;;;;;;;;;5108254;28;20139;-63
2023/11/01 09:29:15;;;;;;;2.28;0.90;;;;;;;;;;5113166;28;20048;-49
2023/11/01 09:31:42;;;;;;;3.45;0.90;;;;;;;;;;5113300;28;20123;-65
2023/11/01 09:34:10;;;;;;;2.47;0.90;;;;;;;;;;5109311;28;20122;-65
2023/11/01 09:36:38;;;;;;;1.52;0.73;;;;;;;;;;5108206;28;20398;-62
2023/11/01 09:39:12;;;;;;;2.63;1.05;;;;;;;;;;5084239;27;20398;-59
2023/11/01 09:41:48;;;;;;;3.60;1.33;;;;;;;;;;5077692;28;20575;-64
2023/11/01 09:44:17;;;;;;;6.07;1.88;;;;;;;;;;5073777;28;20048;-53
2023/11/01 09:46:44;;;;;;;1.17;0.80;;;;;;;;;;5080222;28;20050;-53
2023/11/01 09:49:11;;;;;;;1.88;0.70;;;;;;;;;;5078660;28;20404;-55
2023/11/01 09:51:38;;;;;;;2.25;0.98;;;;;;;;;;5080511;28;20064;-57
2023/11/01 09:54:06;;;;;;;3.40;0.75;;;;;;;;;;5078502;28;20123;-54
2023/11/01 09:56:35;;;;;;;2.00;0.80;;;;;;;;;;5071696;28;20114;-57
2023/11/01 09:59:02;;;;;;;1.75;0.80;;;;;;;;;;5081272;28;20047;-55
2023/11/01 10:01:29;;;;;;;3.35;1.10;;;;;;;;;;5073820;28;20469;-56
2023/11/01 10:03:56;;;;;;;2.90;1.25;;;;;;;;;;5075977;28;20381;-53
2023/11/01 10:06:25;;;;;;;1.58;0.77;;;;;;;;;;5082708;28;20048;-53
2023/11/01 10:08:52;;;;;;;1.38;0.70;;;;;;;;;;5075217;28;20135;-54
2023/11/01 10:11:18;;;;;;;1.95;0.60;;;;;;;;;;5075757;28;20127;-56
2023/11/01 10:13:47;;;;;;;1.88;0.70;;;;;;;;;;5078090;28;20059;-54
2023/11/01 10:16:14;;;;;;;1.60;0.70;;;;;;;;;;5072334;28;20128;-57
2023/11/01 10:18:41;;;;;;;2.15;0.70;;;;;;;;;;5070422;28;20052;-52
2023/11/01 10:21:08;;;;;;;2.17;0.70;;;;;;;;;;5072336;28;20049;-54
2023/11/01 10:23:35;;;;;;;3.08;0.85;;;;;;;;;;5073870;28;20101;-55
2023/11/01 10:26:02;;;;;;;3.17;0.90;;;;;;;;;;5069223;28;20087;-54
2023/11/01 10:28:29;;;;;;;2.88;1.10;;;;;;;;;;5072447;28;20080;-56
2023/11/01 10:30:57;;;;;;;2.30;0.70;;;;;;;;;;5080050;28;20402;-56
2023/11/01 10:33:24;;;;;;;1.90;0.60;;;;;;;;;;5074152;28;20044;-55
2023/11/01 10:36:00;;;;;;;2.45;0.75;;;;;;;;;;5075640;28;20542;-55
2023/11/01 10:38:28;;;;;;;3.85;0.88;;;;;;;;;;5072382;28;20412;-57
2023/11/01 10:40:58;;;;;;;2.13;0.80;;;;;;;;;;5071227;28;20048;-56
2023/11/01 10:43:27;;;;;;;1.30;0.40;;;;;;;;;;5077336;28;20123;-56
2023/11/01 10:45:57;;;;;;;1.92;0.50;;;;;;;;;;5070628;28;20063;-56
2023/11/01 10:48:25;;;;;;;1.90;0.70;;;;;;;;;;5068212;28;20044;-58
2023/11/01 10:50:52;;;;;;;2.15;0.52;;;;;;;;;;5063009;28;20120;-56
2023/11/01 10:53:22;;;;;;;1.30;0.60;;;;;;;;;;5056079;28;20047;-54
2023/11/01 10:55:50;;;;;;;3.22;0.80;;;;;;;;;;5058223;28;20138;-56
2023/11/01 10:58:20;;;;;;;4.80;1.63;;;;;;;;;;5063410;28;20041;-56
2023/11/01 11:00:53;;;;;;;4.68;2.38;;;;;;;;;;5064769;28;20437;-55
2023/11/01 11:03:31;;;;;;;3.70;1.20;;;;;;;;;;5054777;28;20592;-56
2023/11/01 11:05:58;;;;;;;2.72;1.00;;;;;;;;;;5059659;28;20144;-55
2023/11/01 11:08:25;;;;;;;4.78;1.55;;;;;;;;;;5060866;28;20045;-55
2023/11/01 11:10:52;;;;;;;5.35;1.30;;;;;;;;;;5056190;28;20111;-53
2023/11/01 11:13:24;;;;;;;3.25;0.93;;;;;;;;;;5061568;28;20045;-57
2023/11/01 11:15:59;;;;;;;4.65;1.40;;;;;;;;;;5064836;28;20119;-54
2023/11/01 11:18:29;;;;;;;2.53;1.00;;;;;;;;;;5066826;28;20506;-55
2023/11/01 11:20:58;;;;;;;5.45;1.10;;;;;;;;;;5067085;28;20040;-57
2023/11/01 11:23:32;;;;;;;2.33;1.00;;;;;;;;;;5069329;28;20059;-57
2023/11/01 11:25:59;;;;;;;2.70;1.35;;;;;;;;;;5060232;28;20045;-59
2023/11/01 11:28:46;;;;;;;2.40;0.90;;;;;;;;;;5063862;28;20131;-56
2023/11/01 11:31:15;;;;;;;4.47;1.40;;;;;;;;;;5070417;28;20451;-57
2023/11/01 11:34:18;;;;;;;3.42;1.23;;;;;;;;;;5070537;28;20096;-54
2023/11/01 11:37:12;;;;;;;3.25;1.20;;;;;;;;;;5055046;28;20091;-57
2023/11/01 11:40:07;;;;;;;3.17;0.98;;;;;;;;;;5055455;28;20407;-52
2023/11/01 11:42:50;;;;;;;2.92;0.90;;;;;;;;;;5025045;28;20048;-55
2023/11/01 11:45:30;;;;;;;4.53;1.02;;;;;;;;;;5061000;28;20045;-64
2023/11/01 11:47:57;;;;;;;3.25;1.02;;;;;;;;;;5056032;28;20053;-52
2023/11/01 11:50:24;;;;;;;2.65;1.00;;;;;;;;;;5062827;28;20588;-56
2023/11/01 11:52:52;;;;;;;3.70;1.10;;;;;;;;;;5056396;28;20044;-54
2023/11/01 11:55:40;;;;;;;2.67;0.80;;;;;;;;;;5057077;28;20044;-57
2023/11/01 11:58:07;;;;;;;2.08;0.90;;;;;;;;;;5061155;28;20048;-53
2023/11/01 12:00:34;;;;;;;4.03;1.48;;;;;;;;;;5063154;28;20120;-56
2023/11/01 12:03:00;;;;;;;1.85;0.90;;;;;;;;;;5071366;28;20544;-56
2023/11/01 12:05:32;;;;;;;3.00;1.00;;;;;;;;;;5060412;28;20119;-55
2023/11/01 12:08:01;;;;;;;2.22;0.98;;;;;;;;;;5060968;28;20048;-54
2023/11/01 12:10:28;;;;;;;1.90;0.85;;;;;;;;;;5058959;28;20052;-59
2023/11/01 12:12:56;;;;;;;2.35;0.68;;;;;;;;;;5057638;28;20048;-58
2023/11/01 12:15:23;;;;;;;2.67;1.30;;;;;;;;;;5066836;28;20041;-58
2023/11/01 12:17:49;;;;;;;2.05;0.93;;;;;;;;;;5058595;28;20124;-59
2023/11/01 12:20:31;;;;;;;1.13;0.63;;;;;;;;;;5059437;28;20136;-57
2023/11/01 12:23:05;;;;;;;3.63;0.80;;;;;;;;;;5059173;28;20123;-58
2023/11/01 12:25:32;;;;;;;2.95;1.00;;;;;;;;;;5062066;28;20479;-59
2023/11/01 12:27:58;;;;;;;2.25;1.00;;;;;;;;;;5058751;28;20131;-56
2023/11/01 12:30:26;;;;;;;2.95;0.90;;;;;;;;;;5063223;28;20131;-59
2023/11/01 12:32:53;;;;;;;2.08;0.80;;;;;;;;;;5059967;28;20415;-55
2023/11/01 12:35:19;;;;;;;2.78;0.90;;;;;;;;;;5059795;28;20060;-56
2023/11/01 12:37:46;;;;;;;2.20;1.00;;;;;;;;;;5060155;28;20139;-55
2023/11/01 12:40:16;;;;;;;8.95;7.13;;;;;;;;;;5062134;28;20053;-56
2023/11/01 12:42:45;;;;;;;24.60;21.73;;;;;;;;;;5072620;28;20079;-52
2023/11/01 12:45:12;;;;;;;2.08;1.30;;;;;;;;;;5058455;28;20050;-56
2023/11/01 12:47:43;;;;;;;1.73;0.70;;;;;;;;;;5057429;28;20037;-54
2023/11/01 12:50:12;;;;;;;1.33;0.60;;;;;;;;;;5063211;28;20077;-56
2023/11/01 12:52:40;;;;;;;1.42;0.63;;;;;;;;;;5058280;28;20063;-57
2023/11/01 12:55:08;;;;;;;1.58;0.80;;;;;;;;;;5057299;28;20152;-54
2023/11/01 12:57:37;;;;;;;2.28;1.00;;;;;;;;;;5056220;28;20036;-55
2023/11/01 13:00:08;;;;;;;2.08;0.85;;;;;;;;;;5056200;28;20045;-52
2023/11/01 13:02:34;;;;;;;1.70;0.77;;;;;;;;;;5062093;28;20044;-56
2023/11/01 13:05:02;;;;;;;3.65;1.50;;;;;;;;;;5057517;28;20135;-57
2023/11/01 13:07:30;;;;;;;2.33;0.95;;;;;;;;;;5053797;28;20436;-57
2023/11/01 13:09:57;;;;;;;1.48;0.75;;;;;;;;;;5057332;28;20040;-57
2023/11/01 13:12:24;;;;;;;1.70;0.75;;;;;;;;;;5066649;28;20125;-57
2023/11/01 13:14:52;;;;;;;2.30;0.90;;;;;;;;;;5069395;28;20068;-56
2023/11/01 13:17:19;;;;;;;2.78;0.80;;;;;;;;;;5068784;28;20076;-56
2023/11/01 13:19:45;;;;;;;2.00;0.70;;;;;;;;;;5063191;28;20072;-57
2023/11/01 13:22:12;;;;;;;1.63;0.75;;;;;;;;;;5069793;28;20119;-57
2023/11/01 13:24:39;;;;;;;3.13;1.00;;;;;;;;;;5069279;28;20127;-56
2023/11/01 13:27:09;;;;;;;1.60;0.60;;;;;;;;;;5067851;28;20084;-55
2023/11/01 13:29:36;;;;;;;1.10;0.57;;;;;;;;;;5068742;28;20044;-53
2023/11/01 13:32:04;;;;;;;1.95;0.70;;;;;;;;;;5070007;28;20059;-57
2023/11/01 13:34:30;;;;;;;1.80;0.88;;;;;;;;;;5068792;28;20071;-57
2023/11/01 13:36:57;;;;;;;2.20;0.70;;;;;;;;;;5068845;28;20471;-56
2023/11/01 13:39:25;;;;;;;2.60;1.20;;;;;;;;;;5067259;28;20129;-60
2023/11/01 13:41:52;;;;;;;2.22;0.80;;;;;;;;;;5069713;28;20101;-53
2023/11/01 13:44:19;;;;;;;1.08;0.73;;;;;;;;;;5069430;28;20082;-57
2023/11/01 13:46:46;;;;;;;1.92;0.82;;;;;;;;;;5063181;28;20045;-55
2023/11/01 13:49:14;;;;;;;1.85;0.80;;;;;;;;;;5069330;28;20044;-58
2023/11/01 13:51:41;;;;;;;2.00;0.73;;;;;;;;;;5070013;28;20124;-58
2023/11/01 13:54:08;;;;;;;1.35;0.60;;;;;;;;;;5069077;28;20472;-56
2023/11/01 13:56:35;;;;;;;2.58;0.70;;;;;;;;;;5070061;28;20123;-55
2023/11/01 13:59:01;;;;;;;1.60;0.70;;;;;;;;;;5063494;28;20053;-56
2023/11/01 14:01:28;;;;;;;2.78;0.80;;;;;;;;;;5069869;28;20496;-57
2023/11/01 14:03:58;;;;;;;2.30;0.80;;;;;;;;;;5070014;28;20041;-56
2023/11/01 14:06:27;;;;;;;2.55;0.80;;;;;;;;;;5069039;28;20083;-56
2023/11/01 14:08:54;;;;;;;1.55;0.70;;;;;;;;;;5066248;28;20123;-57
2023/11/01 14:11:23;;;;;;;2.88;0.90;;;;;;;;;;5069768;28;20048;-57
2023/11/01 14:13:51;;;;;;;2.03;0.73;;;;;;;;;;5070108;28;20048;-57
2023/11/01 14:16:17;;;;;;;2.00;1.05;;;;;;;;;;5070389;28;20083;-56
2023/11/01 14:18:44;;;;;;;2.30;0.80;;;;;;;;;;5069136;28;20484;-56
2023/11/01 14:21:12;;;;;;;3.65;1.10;;;;;;;;;;5068380;28;20127;-55
2023/11/01 14:23:41;;;;;;;1.58;0.98;;;;;;;;;;5069710;28;20127;-55
2023/11/01 14:26:08;;;;;;;2.58;0.65;;;;;;;;;;5072914;28;20125;-57
2023/11/01 14:28:34;;;;;;;1.75;0.70;;;;;;;;;;5074011;28;20055;-59
2023/11/01 14:31:01;;;;;;;3.50;1.17;;;;;;;;;;5074358;28;20496;-58
2023/11/01 14:33:28;;;;;;;1.65;0.80;;;;;;;;;;5072418;28;20570;-58
2023/11/01 14:35:55;;;;;;;1.85;0.85;;;;;;;;;;5072281;28;20119;-57
2023/11/01 14:38:21;;;;;;;2.85;0.90;;;;;;;;;;5073674;28;20211;-58
2023/11/01 14:40:50;;;;;;;2.03;0.85;;;;;;;;;;5074214;28;20071;-54
2023/11/01 14:43:19;;;;;;;2.17;0.90;;;;;;;;;;5074162;28;20080;-58
2023/11/01 14:45:45;;;;;;;2.03;1.00;;;;;;;;;;5058839;28;20506;-57
2023/11/01 14:48:12;;;;;;;2.47;0.93;;;;;;;;;;5073853;28;20526;-53